createdAt,value
2018-06-03T00:01:01.363Z,6.35
2018-06-03T00:06:05.881Z,7.10
2018-06-03T00:11:09.302Z,6.47
2018-06-03T00:16:13.796Z,6.85
2018-06-03T00:21:30.039Z,7.00
2018-06-03T00:26:35.942Z,5.97
2018-06-03T00:31:42.474Z,6.10
2018-06-03T00:36:47.671Z,6.62
2018-06-03T00:41:51.047Z,6.50
2018-06-03T00:46:54.474Z,7.37
2018-06-03T00:51:58.064Z,7.20
2018-06-03T00:57:10.171Z,7.37
2018-06-03T01:02:14.640Z,7.60
2018-06-03T01:07:18.157Z,8.03
2018-06-03T01:12:21.652Z,8.30
2018-06-03T01:17:25.149Z,7.00
2018-06-03T01:22:28.729Z,8.25
2018-06-03T01:27:34.212Z,10.28
2018-06-03T01:32:37.798Z,9.40
2018-06-03T01:37:41.265Z,8.90
2018-06-03T01:42:44.659Z,8.33
2018-06-03T01:47:48.085Z,8.10
2018-06-03T01:52:52.146Z,8.40
2018-06-03T01:57:55.510Z,8.65
2018-06-03T02:02:59.744Z,8.18
2018-06-03T02:08:03.190Z,8.33
2018-06-03T02:13:06.613Z,8.68
2018-06-03T02:18:10.041Z,7.97
2018-06-03T02:23:13.444Z,7.90
2018-06-03T02:28:20.089Z,7.40
2018-06-03T02:33:23.541Z,7.97
2018-06-03T02:38:28.010Z,8.58
2018-06-03T02:43:31.498Z,8.90
2018-06-03T02:48:34.857Z,8.03
2018-06-03T02:53:38.365Z,10.70
2018-06-03T02:58:42.889Z,7.80
2018-06-03T03:03:46.367Z,8.20
2018-06-03T03:08:49.765Z,9.80
2018-06-03T03:13:54.115Z,8.80
2018-06-03T03:18:57.990Z,9.07
2018-06-03T03:24:02.604Z,8.90
2018-06-03T03:29:13.086Z,9.15
2018-06-03T03:34:19.044Z,9.70
2018-06-03T03:39:22.549Z,9.23
2018-06-03T03:44:26.044Z,8.43
2018-06-03T03:49:29.458Z,10.08
2018-06-03T03:54:34.151Z,10.00
2018-06-03T03:59:37.638Z,9.83
2018-06-03T04:04:41.048Z,9.80
2018-06-03T04:09:44.458Z,8.70
2018-06-03T04:14:47.822Z,9.00
2018-06-03T04:19:52.218Z,9.15
2018-06-03T04:24:55.550Z,9.00
2018-06-03T04:29:58.995Z,10.07
2018-06-03T04:35:02.408Z,9.40
2018-06-03T04:40:05.860Z,8.70
2018-06-03T04:45:09.257Z,8.70
2018-06-03T04:50:12.653Z,9.30
2018-06-03T04:55:16.133Z,10.13
2018-06-03T05:00:19.662Z,10.20
2018-06-03T05:05:23.078Z,8.63
2018-06-03T05:10:26.445Z,9.70
2018-06-03T05:15:29.881Z,10.10
2018-06-03T05:20:33.368Z,10.00
2018-06-03T05:25:36.778Z,8.80
2018-06-03T05:30:40.196Z,13.10
2018-06-03T05:35:43.630Z,11.60
2018-06-03T05:40:47.232Z,11.33
2018-06-03T05:45:50.656Z,10.90
2018-06-03T05:50:53.759Z,11.25
2018-06-03T05:55:57.197Z,8.78
2018-06-03T06:01:03.733Z,11.33
2018-06-03T06:06:09.605Z,10.70
2018-06-03T06:11:13.105Z,10.40
2018-06-03T06:16:16.531Z,10.70
2018-06-03T06:21:19.927Z,10.10
2018-06-03T06:26:23.500Z,9.40
2018-06-03T06:31:26.944Z,10.10
2018-06-03T06:36:30.394Z,10.00
2018-06-03T06:41:33.793Z,8.03
2018-06-03T06:46:36.899Z,9.27
2018-06-03T06:51:40.331Z,8.70
2018-06-03T06:56:43.712Z,8.78
2018-06-03T07:01:47.164Z,8.13
2018-06-03T07:06:50.512Z,7.40
2018-06-03T07:11:55.928Z,7.10
2018-06-03T07:16:59.306Z,6.83
2018-06-03T07:22:02.824Z,6.50
2018-06-03T07:27:06.381Z,6.30
2018-06-03T07:32:09.866Z,4.75
2018-06-03T07:37:13.289Z,4.80
2018-06-03T07:42:16.719Z,4.80
2018-06-03T07:47:20.130Z,4.97
2018-06-03T07:52:23.602Z,5.47
2018-06-03T07:57:30.463Z,4.30
2018-06-03T08:02:33.943Z,3.98
2018-06-03T08:07:37.384Z,5.10
2018-06-03T08:12:40.803Z,4.50
2018-06-03T08:17:49.107Z,6.00
2018-06-03T08:22:54.614Z,4.53
2018-06-03T08:27:58.059Z,6.15
2018-06-03T08:33:01.549Z,3.95
2018-06-03T08:38:04.955Z,4.00
2018-06-03T08:43:08.408Z,4.97
2018-06-03T08:48:11.832Z,4.80
2018-06-03T08:53:15.251Z,4.50
2018-06-03T08:58:18.686Z,4.30
2018-06-03T09:03:24.144Z,3.75
2018-06-03T09:08:27.607Z,4.20
2018-06-03T09:13:31.111Z,4.00
2018-06-03T09:18:34.649Z,3.52
2018-06-03T09:23:40.152Z,3.80
2018-06-03T09:28:43.534Z,4.08
2018-06-03T09:33:47.368Z,3.60
2018-06-03T09:38:53.745Z,5.00
2018-06-03T09:43:57.171Z,3.70
2018-06-03T09:49:00.573Z,4.50
2018-06-03T09:54:04.025Z,3.40
2018-06-03T09:59:07.386Z,3.62
2018-06-03T10:04:11.161Z,3.10
2018-06-03T10:09:14.658Z,3.10
2018-06-03T10:14:17.920Z,3.30
2018-06-03T10:19:21.372Z,2.60
2018-06-03T10:24:28.777Z,2.90
2018-06-03T10:29:32.195Z,3.42
2018-06-03T10:34:35.541Z,2.90
2018-06-03T10:39:39.082Z,2.70
2018-06-03T10:44:42.591Z,3.10
2018-06-03T10:49:46.947Z,2.80
2018-06-03T10:54:50.512Z,3.00
2018-06-03T10:59:53.994Z,2.90
2018-06-03T11:04:57.416Z,3.00
2018-06-03T11:10:00.961Z,3.17
2018-06-03T11:15:04.455Z,2.80
2018-06-03T11:20:07.847Z,3.30
2018-06-03T11:25:11.423Z,2.80
2018-06-03T11:30:15.694Z,2.50
2018-06-03T11:35:19.167Z,2.70
2018-06-03T11:40:22.659Z,4.20
2018-06-03T11:45:27.155Z,2.60
2018-06-03T11:50:30.645Z,4.08
2018-06-03T11:55:34.032Z,2.30
2018-06-03T12:00:37.412Z,3.10
2018-06-03T12:05:44.642Z,3.20
2018-06-03T12:10:48.084Z,2.55
2018-06-03T12:15:51.545Z,2.60
2018-06-03T12:20:54.977Z,4.30
2018-06-03T12:25:58.343Z,2.20
2018-06-03T12:31:01.874Z,2.72
2018-06-03T12:36:05.443Z,3.83
2018-06-03T12:41:08.868Z,3.05
2018-06-03T12:46:12.372Z,2.80
2018-06-03T12:51:15.787Z,3.00
2018-06-03T12:56:19.172Z,2.25
2018-06-03T13:01:22.720Z,2.70
2018-06-03T13:06:26.241Z,2.60
2018-06-03T13:11:29.846Z,2.60
2018-06-03T13:16:33.298Z,2.90
2018-06-03T13:21:42.112Z,2.20
2018-06-03T13:26:47.791Z,2.97
2018-06-03T13:31:51.213Z,2.25
2018-06-03T13:36:54.608Z,2.35
2018-06-03T13:42:00.317Z,2.20
2018-06-03T13:47:03.767Z,2.60
2018-06-03T13:52:09.364Z,2.40
2018-06-03T13:57:12.924Z,2.50
2018-06-03T14:02:16.503Z,2.50
2018-06-03T14:07:22.341Z,2.92
2018-06-03T14:12:26.034Z,3.17
2018-06-03T14:17:29.712Z,2.30
2018-06-03T14:22:34.226Z,2.30
2018-06-03T14:27:38.737Z,2.60
2018-06-03T14:32:42.275Z,3.25
2018-06-03T14:37:45.843Z,2.98
2018-06-03T14:42:50.329Z,2.37
2018-06-03T14:47:53.909Z,4.30
2018-06-03T14:52:59.859Z,3.55
2018-06-03T14:58:03.594Z,2.60
2018-06-03T15:03:08.015Z,6.73
2018-06-03T15:08:11.595Z,2.52
2018-06-03T15:13:14.967Z,2.30
2018-06-03T15:18:18.495Z,3.27
2018-06-03T15:23:21.975Z,2.40
2018-06-03T15:28:25.414Z,1.90
2018-06-03T15:33:28.854Z,2.40
2018-06-03T15:38:32.242Z,3.27
2018-06-03T15:43:35.634Z,2.75
2018-06-03T15:48:39.236Z,2.90
2018-06-03T15:53:42.925Z,3.30
2018-06-03T15:58:46.472Z,4.07
2018-06-03T16:03:50.065Z,5.60
2018-06-03T16:08:53.500Z,3.12
2018-06-03T16:13:57.069Z,15.13
2018-06-03T16:19:01.013Z,15.93
2018-06-03T16:24:04.590Z,5.37
2018-06-03T16:29:08.132Z,7.20
2018-06-03T16:34:11.596Z,4.47
2018-06-03T16:39:15.485Z,2.40
2018-06-03T16:44:18.913Z,2.17
2018-06-03T16:49:22.513Z,2.97
2018-06-03T16:54:25.666Z,3.90
2018-06-03T16:59:29.079Z,2.83
2018-06-03T17:04:33.184Z,1.70
2018-06-03T17:09:36.766Z,3.08
2018-06-03T17:14:40.300Z,2.10
2018-06-03T17:19:43.623Z,2.60
2018-06-03T17:24:48.095Z,2.10
2018-06-03T17:29:51.624Z,2.05
2018-06-03T17:34:55.011Z,2.00
2018-06-03T17:39:58.523Z,2.20
2018-06-03T17:45:02.064Z,3.47
2018-06-03T17:50:05.465Z,1.90
2018-06-03T17:55:08.888Z,2.00
2018-06-03T18:00:12.321Z,1.90
2018-06-03T18:05:15.739Z,1.70
2018-06-03T18:10:20.180Z,2.53
2018-06-03T18:15:24.615Z,2.50
2018-06-03T18:20:30.087Z,1.77
2018-06-03T18:25:33.757Z,2.50
2018-06-03T18:30:37.171Z,2.60
2018-06-03T18:35:40.809Z,1.92
2018-06-03T18:40:44.368Z,1.90
2018-06-03T18:45:47.825Z,2.00
2018-06-03T18:50:51.386Z,2.50
2018-06-03T18:55:55.093Z,2.40
2018-06-03T19:00:58.511Z,2.45
2018-06-03T19:06:02.186Z,2.52
2018-06-03T19:11:07.059Z,2.25
2018-06-03T19:16:10.939Z,2.70
2018-06-03T19:21:14.636Z,2.30
2018-06-03T19:26:18.614Z,3.20
2018-06-03T19:31:22.448Z,2.50
2018-06-03T19:36:26.191Z,3.90
2018-06-03T19:41:29.865Z,3.20
2018-06-03T19:46:35.653Z,2.70
2018-06-03T19:51:39.541Z,3.58
2018-06-03T19:56:43.649Z,3.58
2018-06-03T20:01:47.221Z,3.10
2018-06-03T20:06:51.154Z,3.02
2018-06-03T20:11:54.815Z,2.70
2018-06-03T20:16:58.443Z,3.40
2018-06-03T20:22:02.134Z,2.80
2018-06-03T20:27:05.763Z,4.53
2018-06-03T20:32:09.482Z,3.80
2018-06-03T20:37:13.209Z,3.10
2018-06-03T20:42:16.797Z,3.20
2018-06-03T20:47:20.925Z,3.62
2018-06-03T20:52:24.716Z,3.65
2018-06-03T20:57:29.999Z,9.58
2018-06-03T21:02:33.783Z,4.00
2018-06-03T21:07:37.512Z,4.50
2018-06-03T21:12:41.124Z,5.07
2018-06-03T21:17:44.910Z,5.22
2018-06-03T21:22:48.601Z,5.10
2018-06-03T21:27:53.135Z,5.00
2018-06-03T21:32:56.864Z,5.22
2018-06-03T21:38:00.481Z,5.90
2018-06-03T21:43:04.262Z,5.60
2018-06-03T21:48:13.128Z,5.42
2018-06-03T21:53:16.929Z,6.20
2018-06-03T21:58:20.711Z,5.97
2018-06-03T22:03:24.440Z,6.17
2018-06-03T22:08:28.252Z,6.25
2018-06-03T22:13:32.900Z,7.40
2018-06-03T22:18:36.767Z,7.60
2018-06-03T22:23:40.497Z,6.70
2018-06-03T22:28:44.143Z,7.60
2018-06-03T22:33:47.982Z,7.83
2018-06-03T22:38:51.758Z,8.28
2018-06-03T22:43:55.461Z,8.15
2018-06-03T22:49:00.325Z,7.62
2018-06-03T22:54:03.668Z,8.60
2018-06-03T22:59:08.347Z,9.87
2018-06-03T23:04:12.115Z,10.30
2018-06-03T23:09:15.924Z,10.48
2018-06-03T23:14:19.653Z,11.35
2018-06-03T23:19:27.377Z,11.70
2018-06-03T23:24:31.044Z,11.90
2018-06-03T23:29:34.538Z,12.50
2018-06-03T23:34:37.977Z,13.45
2018-06-03T23:39:44.678Z,13.45
2018-06-03T23:44:48.083Z,12.50
2018-06-03T23:49:51.658Z,14.47
2018-06-03T23:54:57.273Z,13.90
